createdAt,value
2019-02-06T00:00:26.467Z,131.70
2019-02-06T00:02:53.241Z,126.82
2019-02-06T00:05:26.140Z,129.60
2019-02-06T00:08:00.114Z,133.67
2019-02-06T00:10:32.967Z,139.77
2019-02-06T00:13:06.466Z,137.40
2019-02-06T00:15:38.810Z,137.70
2019-02-06T00:18:11.691Z,130.55
2019-02-06T00:20:44.117Z,143.37
2019-02-06T00:23:17.372Z,146.68
2019-02-06T00:25:49.785Z,145.40
2019-02-06T00:28:22.572Z,140.03
2019-02-06T00:30:55.803Z,134.07
2019-02-06T00:33:28.491Z,140.88
2019-02-06T00:36:00.844Z,178.02
2019-02-06T00:38:34.209Z,152.12
2019-02-06T00:41:07.018Z,160.75
2019-02-06T00:43:39.752Z,158.50
2019-02-06T00:46:12.077Z,161.92
2019-02-06T00:48:44.559Z,160.25
2019-02-06T00:51:16.877Z,155.48
2019-02-06T00:53:49.937Z,151.57
2019-02-06T00:56:22.436Z,161.95
2019-02-06T00:58:55.320Z,184.72
2019-02-06T01:01:27.641Z,169.13
2019-02-06T01:04:00.040Z,143.80
2019-02-06T01:06:32.565Z,169.30
2019-02-06T01:09:06.206Z,157.50
2019-02-06T01:11:39.280Z,168.80
2019-02-06T01:14:12.537Z,170.65
2019-02-06T01:16:45.214Z,159.05
2019-02-06T01:19:17.827Z,150.95
2019-02-06T01:21:50.381Z,151.80
2019-02-06T01:24:23.154Z,153.87
2019-02-06T01:26:55.427Z,142.62
2019-02-06T01:29:28.168Z,150.00
2019-02-06T01:32:00.284Z,139.20
2019-02-06T01:34:34.041Z,136.77
2019-02-06T01:37:06.409Z,137.52
2019-02-06T01:39:39.024Z,126.35
2019-02-06T01:42:11.350Z,133.15
2019-02-06T01:44:44.134Z,140.07
2019-02-06T01:47:16.725Z,138.22
2019-02-06T01:49:49.150Z,140.47
2019-02-06T01:52:21.545Z,138.85
2019-02-06T01:54:54.118Z,144.30
2019-02-06T01:57:30.083Z,138.60
2019-02-06T02:00:02.405Z,140.00
2019-02-06T02:02:36.135Z,129.00
2019-02-06T02:05:10.161Z,134.82
2019-02-06T02:07:43.788Z,142.03
2019-02-06T02:10:16.580Z,131.05
2019-02-06T02:12:49.322Z,126.38
2019-02-06T02:15:22.700Z,138.55
2019-02-06T02:17:55.686Z,135.48
2019-02-06T02:20:28.258Z,128.62
2019-02-06T02:23:01.336Z,136.92
2019-02-06T02:25:34.601Z,136.45
2019-02-06T02:28:07.607Z,127.45
2019-02-06T02:30:42.670Z,135.57
2019-02-06T02:33:19.502Z,129.45
2019-02-06T02:35:59.603Z,136.88
2019-02-06T02:38:32.234Z,128.18
2019-02-06T02:41:05.148Z,138.97
2019-02-06T02:43:37.857Z,136.55
2019-02-06T02:46:11.118Z,134.57
2019-02-06T02:48:43.571Z,142.13
2019-02-06T02:51:16.263Z,136.43
2019-02-06T02:53:48.828Z,147.13
2019-02-06T02:56:21.741Z,133.35
2019-02-06T02:58:54.133Z,135.18
2019-02-06T03:01:28.209Z,132.97
2019-02-06T03:04:01.927Z,127.97
2019-02-06T03:06:34.691Z,130.18
2019-02-06T03:09:09.469Z,126.95
2019-02-06T03:11:42.499Z,126.85
2019-02-06T03:14:15.290Z,123.95
2019-02-06T03:16:47.984Z,126.35
2019-02-06T03:19:20.434Z,119.67
2019-02-06T03:21:53.039Z,121.28
2019-02-06T03:24:25.984Z,125.85
2019-02-06T03:26:58.699Z,123.07
2019-02-06T03:29:31.970Z,116.47
2019-02-06T03:32:05.929Z,121.07
2019-02-06T03:34:39.452Z,120.62
2019-02-06T03:37:11.949Z,116.85
2019-02-06T03:39:44.591Z,117.65
2019-02-06T03:42:17.078Z,110.15
2019-02-06T03:44:50.016Z,108.15
2019-02-06T03:47:22.709Z,108.50
2019-02-06T03:49:55.725Z,106.05
2019-02-06T03:52:28.304Z,111.75
2019-02-06T03:55:01.088Z,111.62
2019-02-06T03:57:33.879Z,108.80
2019-02-06T04:00:09.772Z,102.15
2019-02-06T04:02:42.342Z,105.25
2019-02-06T04:05:15.707Z,109.65
2019-02-06T04:07:48.108Z,95.65
2019-02-06T04:10:22.505Z,100.95
2019-02-06T04:12:55.104Z,103.97
2019-02-06T04:15:28.080Z,98.87
2019-02-06T04:18:00.867Z,103.85
2019-02-06T04:20:33.374Z,94.62
2019-02-06T04:23:05.881Z,115.88
2019-02-06T04:25:40.115Z,89.65
2019-02-06T04:28:12.943Z,97.33
2019-02-06T04:30:45.531Z,94.58
2019-02-06T04:33:18.388Z,93.75
2019-02-06T04:35:50.990Z,93.78
2019-02-06T04:38:24.371Z,88.35
2019-02-06T04:40:56.740Z,95.22
2019-02-06T04:43:29.302Z,85.22
2019-02-06T04:46:02.550Z,96.08
2019-02-06T04:48:35.816Z,85.38
2019-02-06T04:51:08.792Z,89.70
2019-02-06T04:53:41.702Z,90.92
2019-02-06T04:56:14.212Z,89.80
2019-02-06T04:58:47.966Z,83.97
2019-02-06T05:01:21.206Z,85.32
2019-02-06T05:03:53.921Z,83.82
2019-02-06T05:06:27.207Z,92.42
2019-02-06T05:09:00.183Z,80.90
2019-02-06T05:11:34.827Z,83.95
2019-02-06T05:14:07.840Z,82.22
2019-02-06T05:16:53.291Z,90.38
2019-02-06T05:19:25.785Z,78.97
2019-02-06T05:21:59.266Z,77.50
2019-02-06T05:24:31.807Z,78.60
2019-02-06T05:27:04.521Z,82.17
2019-02-06T05:29:37.327Z,81.90
2019-02-06T05:32:10.116Z,80.60
2019-02-06T05:34:43.761Z,76.02
2019-02-06T05:37:16.736Z,77.58
2019-02-06T05:39:49.052Z,76.62
2019-02-06T05:42:21.729Z,78.00
2019-02-06T05:44:54.053Z,76.42
2019-02-06T05:47:26.910Z,78.45
2019-02-06T05:50:00.097Z,74.45
2019-02-06T05:52:33.000Z,76.62
2019-02-06T05:55:06.538Z,75.08
2019-02-06T05:57:39.545Z,73.15
2019-02-06T06:00:14.571Z,76.92
2019-02-06T06:02:46.751Z,83.33
2019-02-06T06:05:19.682Z,77.00
2019-02-06T06:07:52.076Z,73.47
2019-02-06T06:10:24.743Z,74.92
2019-02-06T06:12:56.942Z,77.30
2019-02-06T06:15:30.034Z,75.67
2019-02-06T06:18:02.502Z,72.92
2019-02-06T06:20:34.936Z,76.62
2019-02-06T06:23:07.163Z,80.38
2019-02-06T06:25:39.840Z,73.78
2019-02-06T06:28:12.287Z,73.60
2019-02-06T06:30:47.209Z,77.05
2019-02-06T06:33:18.665Z,70.60
2019-02-06T06:35:50.909Z,69.47
2019-02-06T06:38:23.797Z,70.78
2019-02-06T06:40:55.985Z,70.85
2019-02-06T06:43:28.749Z,72.62
2019-02-06T06:46:01.031Z,69.80
2019-02-06T06:48:34.090Z,70.37
2019-02-06T06:51:09.508Z,73.78
2019-02-06T06:53:41.985Z,71.20
2019-02-06T06:56:15.194Z,76.25
2019-02-06T06:58:47.997Z,71.85
2019-02-06T07:01:20.591Z,75.32
2019-02-06T07:03:52.942Z,67.22
2019-02-06T07:06:25.359Z,68.70
2019-02-06T07:08:57.864Z,68.83
2019-02-06T07:11:30.950Z,68.00
2019-02-06T07:14:03.681Z,68.40
2019-02-06T07:16:36.043Z,65.97
2019-02-06T07:19:08.768Z,66.90
2019-02-06T07:21:41.719Z,67.92
2019-02-06T07:24:15.220Z,66.70
2019-02-06T07:26:47.789Z,70.00
2019-02-06T07:29:20.201Z,72.05
2019-02-06T07:31:52.688Z,68.35
2019-02-06T07:34:25.479Z,65.78
2019-02-06T07:36:59.996Z,65.75
2019-02-06T07:39:33.138Z,69.15
2019-02-06T07:42:18.010Z,66.82
2019-02-06T07:44:50.439Z,71.60
2019-02-06T07:47:22.771Z,68.67
2019-02-06T07:49:55.110Z,65.57
2019-02-06T07:52:27.481Z,75.52
2019-02-06T07:55:00.197Z,66.30
2019-02-06T07:57:32.536Z,62.93
2019-02-06T08:00:06.443Z,65.25
2019-02-06T08:02:39.488Z,62.10
2019-02-06T08:05:14.089Z,85.50
2019-02-06T08:07:46.361Z,69.22
2019-02-06T08:10:21.612Z,70.37
2019-02-06T08:12:54.279Z,76.05
2019-02-06T08:15:27.474Z,66.40
2019-02-06T08:17:59.996Z,63.40
2019-02-06T08:20:33.125Z,62.98
2019-02-06T08:23:05.472Z,63.33
2019-02-06T08:25:37.837Z,64.87
2019-02-06T08:28:11.383Z,62.30
2019-02-06T08:30:44.271Z,64.17
2019-02-06T08:33:16.888Z,64.87
2019-02-06T08:35:49.109Z,63.30
2019-02-06T08:38:21.404Z,64.00
2019-02-06T08:40:53.856Z,67.92
2019-02-06T08:43:26.311Z,61.33
2019-02-06T08:45:59.554Z,65.25
2019-02-06T08:48:32.078Z,61.48
2019-02-06T08:51:05.680Z,66.47
2019-02-06T08:53:38.263Z,66.77
2019-02-06T08:56:10.652Z,63.20
2019-02-06T08:58:43.470Z,63.75
2019-02-06T09:01:15.954Z,64.67
2019-02-06T09:03:48.496Z,64.55
2019-02-06T09:06:20.894Z,67.82
2019-02-06T09:08:59.910Z,67.35
2019-02-06T09:11:27.195Z,66.22
2019-02-06T09:14:00.465Z,74.67
2019-02-06T09:16:33.459Z,70.52
2019-02-06T09:19:05.929Z,71.62
2019-02-06T09:21:38.920Z,76.82
2019-02-06T09:24:11.676Z,75.42
2019-02-06T09:26:44.123Z,70.17
2019-02-06T09:29:19.563Z,68.50
2019-02-06T09:31:51.810Z,71.62
2019-02-06T09:34:24.454Z,69.03
2019-02-06T09:36:56.641Z,74.42
2019-02-06T09:39:29.171Z,68.67
2019-02-06T09:42:01.621Z,68.40
2019-02-06T09:44:34.106Z,68.65
2019-02-06T09:47:06.500Z,68.57
2019-02-06T09:49:41.600Z,71.10
2019-02-06T09:52:13.029Z,78.15
2019-02-06T09:54:45.825Z,72.75
2019-02-06T09:57:18.644Z,77.10
2019-02-06T09:59:50.744Z,74.45
2019-02-06T10:02:23.305Z,74.37
2019-02-06T10:04:57.226Z,76.00
2019-02-06T10:07:29.959Z,69.42
2019-02-06T10:10:03.669Z,73.75
2019-02-06T10:12:36.212Z,94.40
2019-02-06T10:15:11.129Z,74.60
2019-02-06T10:17:43.930Z,79.72
2019-02-06T10:20:18.639Z,79.53
2019-02-06T10:22:51.258Z,71.07
2019-02-06T10:25:23.850Z,72.78
2019-02-06T10:27:56.328Z,85.32
2019-02-06T10:30:31.704Z,86.50
2019-02-06T10:33:05.499Z,88.00
2019-02-06T10:35:38.159Z,93.50
2019-02-06T10:38:10.928Z,96.42
2019-02-06T10:40:44.649Z,95.80
2019-02-06T10:43:17.370Z,111.42
2019-02-06T10:45:49.819Z,110.12
2019-02-06T10:48:22.931Z,102.67
2019-02-06T10:50:58.228Z,102.47
2019-02-06T10:53:29.860Z,113.90
2019-02-06T10:56:02.509Z,103.97
2019-02-06T10:58:35.067Z,100.85
2019-02-06T11:01:08.187Z,111.35
2019-02-06T11:03:40.752Z,114.20
2019-02-06T11:06:13.373Z,110.80
2019-02-06T11:08:46.272Z,117.70
2019-02-06T11:11:18.633Z,104.90
2019-02-06T11:13:51.208Z,118.33
2019-02-06T11:16:23.635Z,107.70
2019-02-06T11:18:56.176Z,108.35
2019-02-06T11:21:28.651Z,108.30
2019-02-06T11:24:01.440Z,110.90
2019-02-06T11:26:34.153Z,112.22
2019-02-06T11:29:07.498Z,134.43
2019-02-06T11:31:41.104Z,142.85
2019-02-06T11:34:14.541Z,127.78
2019-02-06T11:36:46.733Z,100.10
2019-02-06T11:39:21.153Z,102.80
2019-02-06T11:41:54.038Z,118.93
2019-02-06T11:44:26.853Z,105.78
2019-02-06T11:46:59.721Z,109.07
2019-02-06T11:49:34.143Z,105.95
2019-02-06T11:52:07.225Z,106.30
2019-02-06T11:54:39.724Z,110.90
2019-02-06T11:57:13.816Z,105.52
2019-02-06T11:59:46.028Z,115.95
2019-02-06T12:02:19.981Z,150.53
2019-02-06T12:04:52.193Z,167.50
2019-02-06T12:07:24.800Z,227.43
2019-02-06T12:09:57.161Z,212.32
2019-02-06T12:12:29.889Z,223.65
2019-02-06T12:15:02.236Z,187.37
2019-02-06T12:17:34.931Z,166.62
2019-02-06T12:20:09.680Z,157.15
2019-02-06T12:22:42.125Z,157.05
2019-02-06T12:25:16.701Z,160.80
2019-02-06T12:27:50.560Z,187.57
2019-02-06T12:30:25.589Z,178.93
2019-02-06T12:32:57.955Z,191.35
2019-02-06T12:35:30.437Z,184.05
2019-02-06T12:38:03.600Z,158.63
2019-02-06T12:40:36.488Z,200.28
2019-02-06T12:43:10.489Z,185.25
2019-02-06T12:45:43.099Z,179.87
2019-02-06T12:48:15.983Z,177.43
2019-02-06T12:50:49.083Z,171.82
2019-02-06T12:53:22.121Z,177.68
2019-02-06T12:55:54.677Z,175.18
2019-02-06T12:58:27.483Z,175.20
2019-02-06T13:00:59.729Z,173.82
2019-02-06T13:03:32.038Z,167.32
2019-02-06T13:06:04.434Z,172.68
2019-02-06T13:08:36.809Z,165.55
2019-02-06T13:11:09.353Z,156.25
2019-02-06T13:13:45.041Z,164.95
2019-02-06T13:16:15.668Z,165.03
2019-02-06T13:18:47.919Z,162.43
2019-02-06T13:21:20.480Z,162.45
2019-02-06T13:23:52.915Z,196.95
2019-02-06T13:26:25.418Z,220.93
2019-02-06T13:28:58.143Z,193.22
2019-02-06T13:31:30.452Z,200.43
2019-02-06T13:34:03.276Z,203.83
2019-02-06T13:36:35.578Z,185.25
2019-02-06T13:39:10.159Z,174.68
2019-02-06T13:41:42.729Z,180.20
2019-02-06T13:44:15.352Z,213.50
2019-02-06T13:46:53.337Z,207.50
2019-02-06T13:49:21.308Z,208.17
2019-02-06T13:51:54.077Z,182.68
2019-02-06T13:54:26.423Z,176.85
2019-02-06T13:56:59.241Z,188.35
2019-02-06T13:59:32.013Z,169.37
2019-02-06T14:02:04.660Z,177.70
2019-02-06T14:04:36.997Z,165.55
2019-02-06T14:07:09.728Z,175.62
2019-02-06T14:09:42.356Z,170.10
2019-02-06T14:12:14.832Z,173.35
2019-02-06T14:14:47.342Z,171.10
2019-02-06T14:17:20.148Z,171.37
2019-02-06T14:19:52.313Z,163.32
2019-02-06T14:22:24.931Z,159.50
2019-02-06T14:24:57.541Z,165.95
2019-02-06T14:27:32.328Z,142.05
2019-02-06T14:30:07.792Z,147.87
2019-02-06T14:32:43.226Z,167.18
2019-02-06T14:35:18.623Z,169.47
2019-02-06T14:37:53.358Z,156.75
2019-02-06T14:40:28.950Z,151.47
2019-02-06T14:43:04.043Z,156.52
2019-02-06T14:45:39.279Z,152.35
2019-02-06T14:48:17.580Z,155.03
2019-02-06T14:50:51.068Z,170.87
2019-02-06T14:53:26.238Z,161.57
2019-02-06T14:56:01.843Z,157.40
2019-02-06T14:58:37.032Z,164.07
2019-02-06T15:01:12.819Z,165.28
2019-02-06T15:03:48.115Z,171.28
2019-02-06T15:06:24.125Z,171.82
2019-02-06T15:08:59.007Z,175.22
2019-02-06T15:11:34.264Z,175.57
2019-02-06T15:14:09.478Z,164.52
2019-02-06T15:16:44.165Z,205.35
2019-02-06T15:19:18.876Z,185.80
2019-02-06T15:21:54.338Z,167.00
2019-02-06T15:24:29.299Z,167.72
2019-02-06T15:27:04.655Z,153.10
2019-02-06T15:29:39.896Z,146.82
2019-02-06T15:32:15.386Z,144.22
2019-02-06T15:34:49.984Z,143.72
2019-02-06T15:37:24.775Z,147.78
2019-02-06T15:39:59.873Z,146.95
2019-02-06T15:42:35.155Z,140.15
2019-02-06T15:45:10.658Z,140.68
2019-02-06T15:47:45.800Z,140.55
2019-02-06T15:50:26.732Z,147.15
2019-02-06T15:52:56.538Z,141.57
2019-02-06T15:55:31.328Z,144.57
2019-02-06T15:58:06.813Z,142.37
2019-02-06T16:00:42.487Z,146.82
2019-02-06T16:03:17.765Z,138.15
2019-02-06T16:05:54.438Z,139.07
2019-02-06T16:08:29.547Z,144.37
2019-02-06T16:11:04.064Z,146.68
2019-02-06T16:13:39.836Z,138.50
2019-02-06T16:16:14.902Z,149.62
2019-02-06T16:18:49.985Z,154.90
2019-02-06T16:21:24.537Z,155.32
2019-02-06T16:23:59.487Z,158.25
2019-02-06T16:26:34.227Z,137.25
2019-02-06T16:29:09.741Z,144.65
2019-02-06T16:31:44.803Z,126.50
2019-02-06T16:34:30.533Z,125.33
2019-02-06T16:37:05.938Z,125.82
2019-02-06T16:39:41.487Z,118.35
2019-02-06T16:42:16.871Z,135.30
2019-02-06T16:44:51.486Z,133.63
2019-02-06T16:47:26.348Z,140.73
2019-02-06T16:50:01.654Z,122.58
2019-02-06T16:52:38.078Z,123.65
2019-02-06T16:55:13.414Z,137.12
2019-02-06T16:57:48.002Z,130.35
2019-02-06T17:00:23.088Z,132.67
2019-02-06T17:02:58.298Z,128.55
2019-02-06T17:05:33.540Z,126.20
2019-02-06T17:08:08.900Z,115.65
2019-02-06T17:10:43.559Z,148.00
2019-02-06T17:13:19.802Z,144.55
2019-02-06T17:15:54.872Z,132.10
2019-02-06T17:18:29.503Z,121.50
2019-02-06T17:21:05.252Z,122.85
2019-02-06T17:23:41.243Z,130.87
2019-02-06T17:26:16.201Z,133.95
2019-02-06T17:28:51.388Z,122.55
2019-02-06T17:31:37.335Z,128.25
2019-02-06T17:34:12.158Z,116.60
2019-02-06T17:36:47.433Z,119.75
2019-02-06T17:39:24.143Z,119.70
2019-02-06T17:41:58.625Z,122.92
2019-02-06T17:44:33.712Z,112.28
2019-02-06T17:47:26.831Z,110.00
2019-02-06T17:50:01.497Z,107.05
2019-02-06T17:52:36.641Z,103.90
2019-02-06T17:55:11.487Z,112.70
2019-02-06T17:57:44.393Z,104.70
2019-02-06T18:00:19.495Z,109.37
2019-02-06T18:02:51.848Z,102.82
2019-02-06T18:05:24.962Z,109.40
2019-02-06T18:07:57.265Z,96.22
2019-02-06T18:10:29.724Z,399.58
2019-02-06T18:13:01.963Z,289.57
2019-02-06T18:15:34.507Z,91.15
2019-02-06T18:18:08.111Z,91.02
2019-02-06T18:20:41.666Z,84.50
2019-02-06T18:23:14.007Z,91.37
2019-02-06T18:25:46.298Z,101.67
2019-02-06T18:28:18.652Z,100.10
2019-02-06T18:30:51.225Z,99.50
2019-02-06T18:33:24.031Z,96.10
2019-02-06T18:35:56.152Z,107.45
2019-02-06T18:38:28.505Z,98.15
2019-02-06T18:41:00.706Z,97.95
2019-02-06T18:43:33.188Z,101.70
2019-02-06T18:46:05.621Z,94.50
2019-02-06T18:48:38.881Z,99.92
2019-02-06T18:51:11.279Z,98.35
2019-02-06T18:53:44.711Z,103.80
2019-02-06T18:56:17.228Z,100.10
2019-02-06T18:58:49.869Z,97.50
2019-02-06T19:01:22.421Z,110.05
2019-02-06T19:03:54.977Z,110.60
2019-02-06T19:06:27.474Z,112.05
2019-02-06T19:08:59.871Z,105.00
2019-02-06T19:11:33.110Z,96.70
2019-02-06T19:14:05.934Z,99.32
2019-02-06T19:16:38.390Z,104.72
2019-02-06T19:19:10.740Z,95.05
2019-02-06T19:21:43.279Z,99.05
2019-02-06T19:24:17.745Z,98.17
2019-02-06T19:26:49.468Z,96.32
2019-02-06T19:29:21.813Z,98.40
2019-02-06T19:31:54.197Z,102.12
2019-02-06T19:34:26.894Z,98.40
2019-02-06T19:36:59.436Z,97.92
2019-02-06T19:39:31.791Z,92.88
2019-02-06T19:42:04.204Z,97.80
2019-02-06T19:44:36.543Z,96.20
2019-02-06T19:47:08.922Z,99.45
2019-02-06T19:49:41.185Z,100.15
2019-02-06T19:52:14.058Z,94.25
2019-02-06T19:54:46.902Z,92.22
2019-02-06T19:57:19.837Z,88.15
2019-02-06T19:59:51.935Z,96.75
2019-02-06T20:02:24.295Z,88.05
2019-02-06T20:04:56.624Z,89.30
2019-02-06T20:07:29.013Z,88.33
2019-02-06T20:10:01.753Z,88.47
2019-02-06T20:12:34.737Z,87.20
2019-02-06T20:15:09.672Z,86.50
2019-02-06T20:17:42.417Z,88.80
2019-02-06T20:20:17.491Z,89.22
2019-02-06T20:22:49.864Z,86.70
2019-02-06T20:25:22.814Z,91.12
2019-02-06T20:27:56.039Z,90.25
2019-02-06T20:30:30.630Z,91.08
2019-02-06T20:33:04.285Z,86.50
2019-02-06T20:35:37.550Z,85.35
2019-02-06T20:38:10.312Z,85.22
2019-02-06T20:40:44.941Z,85.12
2019-02-06T20:43:22.234Z,97.02
2019-02-06T20:45:51.518Z,86.67
2019-02-06T20:48:24.495Z,92.70
2019-02-06T20:50:56.895Z,92.78
2019-02-06T20:53:29.464Z,89.62
2019-02-06T20:56:02.120Z,91.35
2019-02-06T20:58:34.746Z,87.70
2019-02-06T21:01:07.459Z,88.65
2019-02-06T21:03:39.812Z,93.10
2019-02-06T21:06:12.132Z,93.58
2019-02-06T21:08:44.365Z,88.33
2019-02-06T21:11:16.637Z,95.85
2019-02-06T21:13:49.339Z,91.87
2019-02-06T21:16:22.222Z,86.05
2019-02-06T21:18:54.505Z,87.00
2019-02-06T21:21:26.816Z,95.53
2019-02-06T21:23:59.606Z,91.53
2019-02-06T21:26:32.770Z,97.75
2019-02-06T21:29:05.391Z,102.22
2019-02-06T21:31:37.848Z,100.18
2019-02-06T21:34:10.636Z,100.50
2019-02-06T21:36:43.361Z,94.30
2019-02-06T21:39:15.534Z,95.42
2019-02-06T21:41:48.670Z,94.75
2019-02-06T21:44:21.110Z,95.62
2019-02-06T21:46:53.827Z,96.25
2019-02-06T21:49:26.534Z,105.90
2019-02-06T21:51:58.971Z,96.97
2019-02-06T21:54:31.774Z,109.03
2019-02-06T21:57:04.062Z,107.50
2019-02-06T21:59:36.355Z,102.78
2019-02-06T22:02:08.980Z,101.78
2019-02-06T22:04:41.273Z,100.78
2019-02-06T22:07:13.899Z,106.52
2019-02-06T22:09:45.988Z,103.07
2019-02-06T22:12:18.447Z,95.95
2019-02-06T22:14:50.837Z,105.07
2019-02-06T22:17:23.328Z,95.83
2019-02-06T22:19:55.616Z,96.35
2019-02-06T22:22:27.998Z,99.07
2019-02-06T22:25:00.435Z,99.50
2019-02-06T22:27:33.016Z,99.97
2019-02-06T22:30:07.182Z,101.05
2019-02-06T22:32:39.685Z,98.60
2019-02-06T22:35:12.856Z,103.38
2019-02-06T22:37:45.272Z,101.82
2019-02-06T22:40:20.099Z,99.62
2019-02-06T22:42:52.508Z,97.62
2019-02-06T22:45:27.404Z,97.78
2019-02-06T22:47:59.962Z,102.53
2019-02-06T22:50:33.117Z,103.58
2019-02-06T22:53:05.450Z,101.60
2019-02-06T22:55:38.843Z,102.32
2019-02-06T22:58:11.352Z,101.38
2019-02-06T23:00:47.893Z,108.12
2019-02-06T23:03:24.254Z,101.87
2019-02-06T23:05:56.741Z,102.75
2019-02-06T23:08:29.343Z,100.87
2019-02-06T23:11:02.259Z,96.30
2019-02-06T23:13:34.580Z,102.67
2019-02-06T23:16:07.453Z,106.95
2019-02-06T23:18:40.019Z,107.55
2019-02-06T23:21:12.844Z,105.85
2019-02-06T23:23:45.156Z,101.20
2019-02-06T23:26:17.536Z,100.70
2019-02-06T23:28:49.960Z,105.22
2019-02-06T23:31:22.608Z,118.22
2019-02-06T23:33:55.755Z,113.08
2019-02-06T23:36:28.123Z,112.88
2019-02-06T23:39:00.474Z,112.37
2019-02-06T23:41:34.008Z,111.55
2019-02-06T23:44:06.512Z,109.95
2019-02-06T23:46:39.350Z,106.00
2019-02-06T23:49:12.487Z,105.10
2019-02-06T23:51:45.021Z,110.97
2019-02-06T23:54:18.160Z,110.80
2019-02-06T23:56:50.901Z,126.58
2019-02-06T23:59:23.386Z,120.90
